Time;durP1;ratioP1;P1;durP2;ratioP2;P2;SDS_P1;SDS_P2;PMS_P1;PMS_P2;Temp;Humidity;BMP_temperature;BMP_pressure;BME280_temperature;BME280_humidity;BME280_pressure;Samples;Min_cycle;Max_cycle;Signal;HPM_P1;HPM_P2
2022/12/19 00:01:15;;;;;;;8.67;7.37;;;;;;;19.33;35.70;98516.72;4929258;29;20205;-91
2022/12/19 00:03:46;;;;;;;8.33;7.40;;;;;;;18.13;35.76;98289.41;4956112;28;20296;-90
2022/12/19 00:06:13;;;;;;;8.43;7.57;;;;;;;18.45;35.65;98385.31;4912611;29;20224;-90
2022/12/19 00:08:41;;;;;;;9.40;7.93;;;;;;;19.98;35.63;98626.44;4942930;29;20201;-91
2022/12/19 00:11:08;;;;;;;9.07;7.80;;;;;;;19.58;35.80;98542.72;4939222;29;20243;-91
2022/12/19 00:13:35;;;;;;;8.57;7.67;;;;;;;19.42;35.55;98527.41;4957730;28;20197;-91
2022/12/19 00:16:10;;;;;;;8.27;7.47;;;;;;;18.99;35.71;98463.81;4930697;29;20216;-89
2022/12/19 00:18:38;;;;;;;8.10;7.30;;;;;;;19.34;35.59;98489.56;4932758;29;20660;-91
2022/12/19 00:21:05;;;;;;;8.33;7.53;;;;;;;18.74;35.58;98379.25;4924583;29;20292;-91
2022/12/19 00:23:32;;;;;;;9.70;8.70;;;;;;;19.39;35.42;98489.00;4949474;29;20205;-91
2022/12/19 00:26:12;;;;;;;8.77;7.87;;;;;;;18.45;35.55;98291.16;4938749;29;20747;-91
2022/12/19 00:28:39;;;;;;;8.30;7.47;;;;;;;18.80;35.51;98365.16;4947563;28;20282;-91
2022/12/19 00:31:06;;;;;;;8.50;7.50;;;;;;;19.78;35.47;98533.56;4943032;29;20225;-91
2022/12/19 00:33:33;;;;;;;8.47;7.60;;;;;;;19.28;35.13;98434.06;4931104;29;20330;-90
2022/12/19 00:36:04;;;;;;;8.67;7.63;;;;;;;18.95;35.50;98371.06;4922444;29;20288;-91
2022/12/19 00:38:31;;;;;;;9.17;8.27;;;;;;;19.65;35.52;98490.34;4935128;29;20208;-91
2022/12/19 00:41:11;;;;;;;9.77;8.63;;;;;;;18.00;35.58;98210.66;4934952;29;20209;-91
2022/12/19 00:43:38;;;;;;;8.47;7.60;;;;;;;18.24;35.69;98262.84;4927839;29;20213;-89
2022/12/19 00:46:07;;;;;;;8.47;7.57;;;;;;;18.23;35.80;98284.81;4934897;29;20316;-91
2022/12/19 00:48:33;;;;;;;9.67;8.13;;;;;;;18.12;35.59;98287.63;4922355;29;20216;-91
2022/12/19 00:51:04;;;;;;;9.47;8.10;;;;;;;19.03;35.60;98414.78;4941282;29;20646;-90
2022/12/19 00:53:32;;;;;;;9.40;7.80;;;;;;;16.29;35.68;97930.13;4927405;29;20284;-91
2022/12/19 00:56:03;;;;;;;8.60;7.70;;;;;;;19.14;35.70;98423.88;4913149;29;20398;-91
2022/12/19 00:58:29;;;;;;;9.40;7.90;;;;;;;19.45;35.88;98474.03;4936271;29;20716;-90
2022/12/19 01:01:08;;;;;;;8.73;7.87;;;;;;;18.63;35.72;98365.06;4909154;29;20205;-90
2022/12/19 01:03:35;;;;;;;9.20;8.20;;;;;;;19.00;35.75;98429.91;4920220;28;20284;-89
2022/12/19 01:06:02;;;;;;;9.27;8.10;;;;;;;18.35;35.54;98311.75;4943799;28;20209;-91
2022/12/19 01:08:28;;;;;;;8.80;7.90;;;;;;;18.44;35.74;98309.75;4931931;28;20212;-91
2022/12/19 01:10:56;;;;;;;8.97;8.07;;;;;;;18.65;35.54;98338.88;4920228;29;20212;-91
2022/12/19 01:13:24;;;;;;;7.80;7.03;;;;;;;18.49;35.43;98312.53;4934489;29;20248;-90
2022/12/19 01:15:51;;;;;;;9.53;8.30;;;;;;;19.28;35.61;98461.19;4942621;28;20209;-91
2022/12/19 01:18:17;;;;;;;8.73;7.73;;;;;;;19.75;35.49;98521.50;4953517;28;20275;-91
2022/12/19 01:20:47;;;;;;;9.73;8.33;;;;;;;19.29;35.36;98458.72;4926066;29;20239;-90
2022/12/19 01:23:15;;;;;;;9.13;8.23;;;;;;;18.04;35.26;98222.75;4926542;29;20221;-91
2022/12/19 01:25:41;;;;;;;8.80;7.90;;;;;;;19.76;35.13;98535.16;4936152;28;20213;-91
2022/12/19 01:28:12;;;;;;;9.97;8.97;;;;;;;17.65;35.51;98172.25;4926734;29;20221;-91
2022/12/19 01:30:40;;;;;;;9.10;8.20;;;;;;;19.57;35.55;98520.56;4931205;28;20200;-90
2022/12/19 01:33:09;;;;;;;9.30;8.23;;;;;;;19.10;35.60;98475.47;4934872;29;20223;-91
2022/12/19 01:35:36;;;;;;;9.33;8.13;;;;;;;19.28;35.65;98461.19;4934326;28;20568;-90
2022/12/19 01:38:04;;;;;;;9.33;8.00;;;;;;;18.83;35.57;98393.34;4918958;29;20200;-91
2022/12/19 01:40:34;;;;;;;8.87;7.97;;;;;;;17.55;35.49;98156.44;4953792;28;20201;-90
2022/12/19 01:43:01;;;;;;;8.83;7.93;;;;;;;18.96;35.62;98439.06;4922918;28;20224;-90
2022/12/19 01:45:29;;;;;;;9.30;8.30;;;;;;;19.20;35.62;98482.81;4941958;29;20251;-90
2022/12/19 01:48:02;;;;;;;9.53;8.33;;;;;;;18.42;36.10;98321.53;4926602;29;20221;-91
2022/12/19 01:50:33;;;;;;;9.70;8.53;;;;;;;18.16;35.70;98311.56;4965600;28;20292;-91
2022/12/19 01:53:00;;;;;;;8.97;8.07;;;;;;;18.43;36.48;98431.81;4942509;29;20256;-91
2022/12/19 01:55:27;;;;;;;8.90;8.00;;;;;;;15.67;35.53;97856.41;4923953;29;20225;-91
2022/12/19 01:57:53;;;;;;;8.87;7.87;;;;;;;15.77;35.70;97881.47;4977449;28;20578;-91
2022/12/19 02:00:20;;;;;;;8.57;7.67;;;;;;;17.29;35.71;98110.94;4941341;28;20278;-92
2022/12/19 02:03:00;;;;;;;8.83;7.90;;;;;;;17.46;35.46;98149.19;4934313;29;20216;-91
2022/12/19 02:05:27;;;;;;;8.93;8.03;;;;;;;19.50;35.58;98504.84;4932321;29;20259;-91
2022/12/19 02:07:54;;;;;;;8.20;7.47;;;;;;;18.65;35.48;98343.13;4956694;28;20226;-91
2022/12/19 02:10:20;;;;;;;9.40;8.40;;;;;;;17.98;35.21;98232.59;4950265;28;20665;-91
2022/12/19 02:12:47;;;;;;;9.70;8.67;;;;;;;17.28;35.51;98094.81;4931151;28;20240;-91
2022/12/19 02:15:16;;;;;;;10.60;9.37;;;;;;;17.41;35.39;98131.91;4930991;28;20327;-91
2022/12/19 02:18:00;;;;;;;9.03;8.13;;;;;;;19.47;35.41;98484.28;4952231;29;20208;-90
2022/12/19 02:20:29;;;;;;;10.47;9.13;;;;;;;18.42;35.68;98339.34;4948463;28;20203;-91
2022/12/19 02:23:11;;;;;;;9.30;8.13;;;;;;;17.61;35.24;98221.19;4950418;28;20231;-90
2022/12/19 02:26:17;;;;;;;9.27;8.27;;;;;;;19.99;35.72;98578.91;4969839;28;20659;-91
2022/12/19 02:29:14;;;;;;;9.27;8.03;;;;;;;19.98;35.67;98589.91;4942868;28;20684;-90
2022/12/19 02:31:47;;;;;;;9.63;8.43;;;;;;;19.30;35.64;98441.78;4930651;29;20232;-89
2022/12/19 02:34:35;;;;;;;8.57;7.67;;;;;;;19.98;35.56;98566.97;4942475;29;20204;-91
2022/12/19 02:37:12;;;;;;;9.67;8.00;;;;;;;18.96;35.63;98397.44;4944810;28;20205;-90
2022/12/19 02:40:11;;;;;;;8.17;7.30;;;;;;;17.91;35.61;98217.78;4946260;28;20411;-91
2022/12/19 02:42:41;;;;;;;9.10;8.13;;;;;;;19.41;35.62;98484.88;4926066;28;20233;-90
2022/12/19 02:45:09;;;;;;;9.43;8.40;;;;;;;19.47;35.65;98505.59;4941323;28;20648;-91
2022/12/19 02:47:36;;;;;;;8.47;7.67;;;;;;;18.56;35.96;98357.91;4918069;29;20217;-91
2022/12/19 02:50:03;;;;;;;9.30;8.13;;;;;;;18.92;35.76;98400.63;4939366;29;20196;-92
2022/12/19 02:52:30;;;;;;;9.40;8.40;;;;;;;19.98;35.67;98583.94;4936636;29;20231;-88
2022/12/19 02:55:07;;;;;;;9.00;8.03;;;;;;;19.99;35.58;98585.72;4956508;28;20300;-90
2022/12/19 02:58:02;;;;;;;9.43;8.43;;;;;;;19.99;35.66;98560.19;4937562;28;20195;-90
2022/12/19 03:00:29;;;;;;;9.87;8.30;;;;;;;18.60;35.60;98317.44;4935209;28;20690;-92
2022/12/19 03:03:22;;;;;;;9.63;8.57;;;;;;;17.85;35.39;98207.28;4918056;29;20224;-91
2022/12/19 03:06:08;;;;;;;9.53;8.27;;;;;;;19.99;35.47;98562.75;4924153;28;20275;-90
2022/12/19 03:08:52;;;;;;;9.73;8.73;;;;;;;19.50;35.39;98481.91;4957856;28;20307;-90
2022/12/19 03:11:19;;;;;;;9.43;8.50;;;;;;;18.67;35.52;98370.41;4946120;28;20211;-90
2022/12/19 03:14:09;;;;;;;9.73;8.73;;;;;;;19.76;35.67;98551.34;4928361;29;20235;-90
2022/12/19 03:16:36;;;;;;;9.43;8.43;;;;;;;19.99;35.74;98586.56;4924715;29;20255;-92
2022/12/19 03:19:04;;;;;;;9.27;8.30;;;;;;;19.26;35.62;98438.16;4928380;29;20216;-90
2022/12/19 03:21:38;;;;;;;11.53;9.67;;;;;;;18.13;35.83;98197.81;4943612;28;20220;-91
2022/12/19 03:24:06;;;;;;;9.10;8.20;;;;;;;18.26;35.72;98190.84;4940631;29;20284;-91
2022/12/19 03:26:38;;;;;;;9.10;8.17;;;;;;;18.89;35.34;98426.78;4931498;29;20259;-91
2022/12/19 03:29:11;;;;;;;10.23;9.13;;;;;;;19.55;35.66;98481.38;4954752;28;20291;-91
2022/12/19 03:31:40;;;;;;;9.63;8.63;;;;;;;19.72;35.72;98461.84;4930059;29;20221;-91
2022/12/19 03:34:20;;;;;;;10.00;9.00;;;;;;;16.82;35.78;98054.97;4933580;29;20231;-91
2022/12/19 03:36:52;;;;;;;8.83;7.93;;;;;;;18.32;35.75;98369.25;4946772;28;20211;-91
2022/12/19 03:39:19;;;;;;;10.43;8.63;;;;;;;19.06;35.74;98442.97;4935371;29;20683;-91
2022/12/19 03:44:36;;;;;;;9.27;8.33;;;;;;;19.66;35.85;98548.22;4953751;29;20208;-89
2022/12/19 03:47:09;;;;;;;9.27;8.37;;;;;;;18.95;35.48;98428.81;4958024;28;20699;-91
2022/12/19 03:49:36;;;;;;;8.80;7.90;;;;;;;19.55;35.71;98488.13;4941225;29;20672;-91
2022/12/19 03:52:15;;;;;;;10.23;9.13;;;;;;;20.00;35.53;98579.78;4938047;28;20231;-91
2022/12/19 03:54:49;;;;;;;9.90;8.90;;;;;;;18.43;35.55;98307.13;4969114;28;20209;-91
2022/12/19 03:57:26;;;;;;;9.73;8.73;;;;;;;18.21;35.39;98321.19;4929322;29;20201;-91
2022/12/19 04:00:03;;;;;;;9.80;8.80;;;;;;;18.14;35.49;98283.50;4933561;29;20274;-92
2022/12/19 04:02:31;;;;;;;10.33;9.23;;;;;;;19.46;35.36;98485.09;4918112;29;20224;-90
2022/12/19 04:05:03;;;;;;;10.17;8.60;;;;;;;18.19;35.42;98259.19;4923947;29;20292;-91
2022/12/19 04:07:30;;;;;;;9.57;8.57;;;;;;;19.71;35.42;98531.47;4936807;28;20221;-91
2022/12/19 04:09:56;;;;;;;9.17;8.27;;;;;;;18.96;35.28;98412.72;4930594;29;20212;-91
2022/12/19 04:12:26;;;;;;;9.50;8.50;;;;;;;19.99;35.42;98584.00;4937223;28;20243;-91
2022/12/19 04:14:52;;;;;;;9.97;8.40;;;;;;;15.79;35.30;97799.72;4918785;29;20346;-91
2022/12/19 04:17:48;;;;;;;9.80;8.80;;;;;;;19.99;35.64;98571.25;4944203;28;20663;-91
2022/12/19 04:20:16;;;;;;;9.90;8.87;;;;;;;18.97;35.47;98320.19;4930283;29;20205;-91
2022/12/19 04:22:48;;;;;;;10.10;9.03;;;;;;;18.32;35.62;98198.78;4946378;28;20299;-91
2022/12/19 04:25:16;;;;;;;8.90;8.00;;;;;;;19.99;35.72;98561.03;4928788;29;20207;-91
2022/12/19 04:27:49;;;;;;;10.90;9.33;;;;;;;19.38;35.82;98435.38;4945109;28;20592;-90
2022/12/19 04:30:16;;;;;;;10.77;9.67;;;;;;;17.98;35.68;98244.44;4939956;28;20208;-91
2022/12/19 04:32:43;;;;;;;10.70;8.90;;;;;;;19.53;35.64;98518.66;4924077;29;20570;-91
2022/12/19 04:35:11;;;;;;;10.67;9.17;;;;;;;16.68;35.26;98002.56;4922744;28;20744;-91
2022/12/19 04:37:39;;;;;;;10.67;9.27;;;;;;;17.70;35.85;98226.78;4925409;28;20623;-91
2022/12/19 04:40:07;;;;;;;10.37;9.17;;;;;;;16.95;35.95;98148.78;4945476;28;20205;-91
2022/12/19 04:42:33;;;;;;;10.13;9.10;;;;;;;18.22;35.68;98294.09;4946075;29;20732;-91
2022/12/19 04:45:00;;;;;;;10.53;9.43;;;;;;;18.69;35.42;98362.84;4931807;29;20255;-90
2022/12/19 04:47:27;;;;;;;10.53;9.03;;;;;;;18.53;35.46;98322.97;4932953;29;20221;-92
2022/12/19 04:49:53;;;;;;;10.23;9.13;;;;;;;18.71;35.77;98372.31;4939494;28;20208;-91
2022/12/19 04:52:20;;;;;;;10.40;9.30;;;;;;;19.50;35.42;98490.44;4936341;29;20307;-90
2022/12/19 04:54:47;;;;;;;9.53;8.53;;;;;;;18.45;35.40;98303.00;4935862;29;20299;-91
2022/12/19 04:57:13;;;;;;;9.93;8.90;;;;;;;17.50;34.85;98229.88;4927518;29;20201;-91
2022/12/19 04:59:40;;;;;;;8.97;8.07;;;;;;;19.86;35.50;98602.03;4917749;29;20211;-91
2022/12/19 05:02:07;;;;;;;10.37;9.23;;;;;;;18.35;35.65;98318.53;4933934;28;20317;-91
2022/12/19 05:04:33;;;;;;;9.60;8.50;;;;;;;18.05;35.63;98294.84;4932499;28;20199;-91
2022/12/19 05:07:00;;;;;;;9.37;8.47;;;;;;;18.51;35.67;98344.94;4965169;28;20213;-91
2022/12/19 05:09:27;;;;;;;11.00;9.37;;;;;;;17.34;35.61;98148.47;4930216;29;20569;-90
2022/12/19 05:11:53;;;;;;;10.93;9.63;;;;;;;18.04;35.56;98266.00;4917563;29;20233;-90
2022/12/19 05:14:20;;;;;;;10.80;9.60;;;;;;;19.21;35.47;98479.44;4938615;29;20675;-91
2022/12/19 05:16:46;;;;;;;9.90;8.80;;;;;;;19.73;35.56;98545.19;4922590;29;20204;-90
2022/12/19 05:19:15;;;;;;;10.27;9.17;;;;;;;19.56;35.54;98507.72;4934888;28;20296;-90
2022/12/19 05:21:44;;;;;;;9.47;8.50;;;;;;;19.47;35.84;98500.47;4926693;28;20229;-91
2022/12/19 05:24:11;;;;;;;10.00;8.83;;;;;;;17.96;35.43;98262.16;4940611;28;20201;-90
2022/12/19 05:26:38;;;;;;;9.77;8.77;;;;;;;18.29;35.67;98297.84;4938597;29;20247;-90
2022/12/19 05:29:04;;;;;;;9.83;8.83;;;;;;;19.20;35.63;98483.69;4920857;29;20228;-91
2022/12/19 05:31:32;;;;;;;9.73;8.70;;;;;;;19.20;35.71;98436.94;4942518;28;20318;-91
2022/12/19 05:33:59;;;;;;;9.43;8.50;;;;;;;19.37;35.69;98459.13;4944618;28;20599;-91
2022/12/19 05:36:25;;;;;;;10.73;9.63;;;;;;;19.33;35.32;98463.19;4936158;29;20661;-91
2022/12/19 05:38:58;;;;;;;10.53;8.93;;;;;;;19.23;35.46;98417.59;4940399;28;20204;-89
2022/12/19 05:41:24;;;;;;;10.67;8.67;;;;;;;19.59;35.55;98503.66;4935992;29;20228;-90
2022/12/19 05:43:54;;;;;;;10.20;9.10;;;;;;;19.44;35.58;98466.28;4916309;29;20673;-89
2022/12/19 05:46:21;;;;;;;10.03;9.03;;;;;;;19.32;35.84;98447.81;4923933;29;20669;-92
2022/12/19 05:48:48;;;;;;;10.27;9.23;;;;;;;19.32;35.61;98450.34;4936369;29;20220;-90
2022/12/19 05:51:15;;;;;;;11.37;10.13;;;;;;;19.18;35.37;98448.72;4928929;29;20283;-90
2022/12/19 05:53:41;;;;;;;9.80;8.80;;;;;;;19.34;35.30;98466.63;4938372;29;20208;-90
2022/12/19 05:56:18;;;;;;;18.40;15.97;;;;;;;19.78;34.46;98544.63;4939975;28;20291;-90
2022/12/19 05:58:45;;;;;;;25.23;21.80;;;;;;;17.81;32.35;98214.66;4936063;29;20232;-89
2022/12/19 06:01:17;;;;;;;26.80;23.57;;;;;;;19.59;30.76;98521.53;4928792;29;20223;-90
2022/12/19 06:03:43;;;;;;;29.87;25.63;;;;;;;19.39;29.87;98473.69;4938173;29;20204;-89
2022/12/19 06:06:22;;;;;;;30.50;26.80;;;;;;;19.13;29.09;98445.91;4952175;28;20230;-90
2022/12/19 06:08:56;;;;;;;32.63;26.20;;;;;;;19.39;28.64;98499.19;4955674;28;20240;-89
2022/12/19 06:11:22;;;;;;;32.13;27.30;;;;;;;18.98;28.56;98432.38;4931372;28;20287;-89
2022/12/19 06:13:49;;;;;;;31.90;27.40;;;;;;;18.75;28.05;98374.25;4917755;29;20211;-91
2022/12/19 06:16:17;;;;;;;36.80;28.50;;;;;;;19.33;27.55;98492.91;4934221;29;20208;-90
2022/12/19 06:18:43;;;;;;;31.50;25.67;;;;;;;19.82;27.94;98569.53;4933579;29;20208;-89
2022/12/19 06:21:13;;;;;;;30.27;26.33;;;;;;;19.62;29.02;98567.59;4937198;29;20212;-89
2022/12/19 06:23:40;;;;;;;30.20;24.70;;;;;;;18.83;30.04;98416.25;4930300;29;20236;-90
2022/12/19 06:26:07;;;;;;;31.80;25.60;;;;;;;19.67;30.50;98586.56;4974345;28;20208;-89
2022/12/19 06:28:38;;;;;;;28.87;24.33;;;;;;;19.39;30.73;98505.97;4930705;29;20224;-92
2022/12/19 06:31:06;;;;;;;30.73;25.67;;;;;;;19.55;31.21;98557.88;4933186;29;20204;-92
2022/12/19 06:33:35;;;;;;;27.93;23.30;;;;;;;18.84;31.39;98415.50;4934257;29;20668;-93
2022/12/19 06:36:15;;;;;;;27.27;22.00;;;;;;;19.78;31.58;98582.91;4921108;29;20264;-92
2022/12/19 06:38:42;;;;;;;26.17;21.93;;;;;;;17.62;31.97;98200.06;4950810;29;20204;-92
2022/12/19 06:43:59;;;;;;;24.60;20.57;;;;;;;18.58;32.58;98357.19;4945787;29;20235;-90
2022/12/19 06:46:25;;;;;;;24.73;20.30;;;;;;;18.85;32.84;98432.50;4936803;29;20215;-90
2022/12/19 06:48:52;;;;;;;22.80;18.53;;;;;;;19.79;32.76;98592.31;4929107;29;20247;-91
2022/12/19 06:51:19;;;;;;;22.60;18.33;;;;;;;18.02;32.94;98292.13;4931922;29;20197;-92
2022/12/19 06:53:54;;;;;;;25.70;19.10;;;;;;;19.49;32.93;98541.34;4953863;28;20316;-91
2022/12/19 06:56:37;;;;;;;20.43;17.67;;;;;;;18.48;33.02;98364.25;4942461;28;20216;-90
2022/12/19 06:59:04;;;;;;;19.33;17.10;;;;;;;19.06;33.01;98471.00;4927953;29;20201;-92
2022/12/19 07:01:33;;;;;;;21.00;16.90;;;;;;;19.85;33.04;98601.97;4922144;28;20227;-91
2022/12/19 07:04:00;;;;;;;19.43;16.00;;;;;;;18.86;33.17;98426.63;4947295;28;20204;-92
2022/12/19 07:06:27;;;;;;;21.60;15.90;;;;;;;19.04;33.15;98477.69;4952649;28;20203;-91
2022/12/19 07:08:53;;;;;;;21.00;16.93;;;;;;;18.09;32.99;98290.00;4956860;28;20660;-91
2022/12/19 07:11:20;;;;;;;18.90;16.13;;;;;;;19.34;33.34;98502.31;4925316;28;20314;-90
2022/12/19 07:13:46;;;;;;;16.97;14.70;;;;;;;19.21;33.67;98482.00;4931225;29;20240;-93
2022/12/19 07:16:13;;;;;;;26.30;20.40;;;;;;;18.49;32.60;98351.59;4931656;29;20215;-92
2022/12/19 07:18:40;;;;;;;25.37;20.80;;;;;;;18.96;31.50;98463.66;4932937;29;20282;-92
2022/12/19 07:21:07;;;;;;;23.80;19.97;;;;;;;19.26;31.61;98499.31;4941079;29;20211;-92
2022/12/19 07:23:33;;;;;;;23.50;19.07;;;;;;;19.66;32.40;98551.63;4940284;29;20196;-91
2022/12/19 07:26:00;;;;;;;22.67;18.60;;;;;;;18.70;31.76;98373.13;4939976;29;20724;-94
2022/12/19 07:28:26;;;;;;;22.67;19.13;;;;;;;19.52;32.73;98516.03;4936894;28;20275;-92
2022/12/19 07:30:53;;;;;;;24.53;18.80;;;;;;;19.26;32.94;98468.72;4915184;29;20243;-92
2022/12/19 07:33:20;;;;;;;22.57;18.97;;;;;;;18.91;32.69;98416.66;4918362;28;20244;-92
2022/12/19 07:35:47;;;;;;;20.83;17.90;;;;;;;19.01;33.08;98434.22;4953678;28;20208;-92
2022/12/19 07:38:14;;;;;;;21.20;17.47;;;;;;;18.77;32.97;98382.81;4937767;29;20205;-92
2022/12/19 07:40:40;;;;;;;22.47;17.20;;;;;;;18.80;33.66;98394.88;4933491;29;20661;-92
2022/12/19 07:43:07;;;;;;;19.30;15.93;;;;;;;18.80;33.27;98382.13;4942650;28;20307;-93
2022/12/19 07:45:36;;;;;;;18.30;16.07;;;;;;;19.13;33.21;98465.44;4933396;29;20208;-93
2022/12/19 07:48:03;;;;;;;29.47;19.77;;;;;;;18.82;32.09;98398.34;4934043;29;20704;-92
2022/12/19 07:50:47;;;;;;;25.10;20.97;;;;;;;18.63;31.18;98371.06;4949485;28;20204;-91
2022/12/19 07:53:15;;;;;;;25.53;20.83;;;;;;;18.03;32.04;98265.91;4922370;29;20228;-94
2022/12/19 07:55:41;;;;;;;23.70;20.03;;;;;;;18.55;32.46;98382.47;4927265;29;20723;-94
2022/12/19 07:58:09;;;;;;;23.50;19.33;;;;;;;18.80;32.55;98402.50;4936089;29;20205;-92
2022/12/19 08:00:37;;;;;;;24.10;19.10;;;;;;;18.04;32.20;98276.19;4930732;29;20283;-92
2022/12/19 08:03:03;;;;;;;22.17;18.13;;;;;;;19.05;32.82;98442.13;4954127;29;20259;-93
2022/12/19 08:05:30;;;;;;;19.57;16.90;;;;;;;19.35;33.03;98496.41;4942995;29;20597;-92
2022/12/19 08:07:57;;;;;;;20.43;16.80;;;;;;;19.02;33.08;98433.41;4939361;28;20228;-89
2022/12/19 08:10:23;;;;;;;21.07;16.97;;;;;;;18.26;33.08;98301.09;4923827;29;20255;-92
2022/12/19 08:12:50;;;;;;;19.57;16.53;;;;;;;19.01;33.01;98427.44;4939306;28;20690;-91
2022/12/19 08:15:16;;;;;;;19.43;15.97;;;;;;;19.85;32.92;98569.69;4921977;29;20197;-92
2022/12/19 08:17:43;;;;;;;20.57;17.00;;;;;;;18.98;33.16;98422.19;4956308;29;20209;-93
2022/12/19 08:20:10;;;;;;;19.60;16.03;;;;;;;19.18;33.46;98459.78;4937562;29;20208;-91
2022/12/19 08:22:37;;;;;;;17.37;14.67;;;;;;;18.92;33.38;98400.63;4931932;29;20220;-92
2022/12/19 08:25:05;;;;;;;18.40;15.47;;;;;;;19.68;33.46;98536.41;4947580;29;20287;-92
2022/12/19 08:27:33;;;;;;;18.47;15.10;;;;;;;19.45;33.66;98506.31;4936680;29;20203;-92
2022/12/19 08:30:00;;;;;;;17.17;14.17;;;;;;;18.41;33.50;98311.28;4934851;28;20568;-92
2022/12/19 08:32:27;;;;;;;18.13;14.67;;;;;;;18.12;33.68;98258.78;4920707;29;20283;-90
2022/12/19 08:34:55;;;;;;;16.37;14.00;;;;;;;18.72;33.61;98358.81;4958070;28;20673;-92
2022/12/19 08:37:22;;;;;;;27.23;23.17;;;;;;;18.71;31.58;98363.81;4938757;29;20207;-91
2022/12/19 08:39:48;;;;;;;28.93;22.73;;;;;;;18.24;30.23;98282.34;4941481;29;20291;-92
2022/12/19 08:42:15;;;;;;;26.73;22.57;;;;;;;19.40;31.18;98479.69;4939835;28;20325;-92
2022/12/19 08:44:41;;;;;;;27.20;21.60;;;;;;;18.93;31.57;98405.78;4941169;29;20668;-90
2022/12/19 08:47:08;;;;;;;23.97;19.43;;;;;;;19.36;32.11;98460.78;4938799;29;20214;-90
2022/12/19 08:49:35;;;;;;;23.40;19.83;;;;;;;18.87;32.43;98372.34;4912358;29;20236;-90
2022/12/19 08:52:01;;;;;;;23.90;17.87;;;;;;;19.82;32.33;98563.53;4930994;29;20307;-90
2022/12/19 08:54:28;;;;;;;22.63;18.37;;;;;;;17.99;32.54;98236.88;4938372;29;20209;-90
2022/12/19 08:56:55;;;;;;;22.73;17.63;;;;;;;18.68;32.74;98358.56;4933694;29;20219;-91
2022/12/19 08:59:21;;;;;;;21.53;17.07;;;;;;;19.57;32.47;98509.50;4936627;29;20660;-89
2022/12/19 09:02:00;;;;;;;22.93;18.03;;;;;;;19.55;32.54;98529.81;4937771;29;20766;-90
2022/12/19 09:04:27;;;;;;;18.50;16.10;;;;;;;18.68;32.64;98377.25;4934504;28;20208;-90
2022/12/19 09:07:14;;;;;;;21.53;17.43;;;;;;;18.90;32.80;98410.72;4931647;28;20204;-91
2022/12/19 09:09:42;;;;;;;19.07;16.53;;;;;;;18.68;32.92;98374.69;4960198;28;20216;-91
2022/12/19 09:12:09;;;;;;;20.30;16.37;;;;;;;18.98;32.93;98429.81;4960351;28;20224;-90
2022/12/19 09:14:35;;;;;;;19.03;16.20;;;;;;;18.99;33.23;98433.25;4929813;29;20201;-87
2022/12/19 09:17:02;;;;;;;17.80;15.10;;;;;;;19.25;33.33;98464.44;4921821;29;20212;-91
2022/12/19 09:19:30;;;;;;;17.73;15.40;;;;;;;19.83;33.20;98557.63;4912850;29;20653;-90
2022/12/19 09:21:57;;;;;;;19.57;14.90;;;;;;;18.56;33.21;98337.53;4935761;29;20232;-90
2022/12/19 09:24:23;;;;;;;17.60;15.17;;;;;;;19.17;33.55;98444.41;4949703;29;20217;-90
2022/12/19 09:26:50;;;;;;;17.47;14.77;;;;;;;19.56;33.39;98530.69;4932045;28;20200;-91
2022/12/19 09:29:16;;;;;;;16.83;13.87;;;;;;;19.18;33.42;98444.50;4936461;29;20699;-89
2022/12/19 09:31:47;;;;;;;17.20;14.13;;;;;;;19.66;33.71;98521.03;4934702;29;20267;-91
2022/12/19 09:34:23;;;;;;;15.80;12.97;;;;;;;19.46;33.24;98467.25;4931646;28;20235;-87
2022/12/19 09:37:07;;;;;;;17.00;13.83;;;;;;;19.19;33.50;98427.56;4914699;29;20583;-91
2022/12/19 09:39:37;;;;;;;14.67;12.37;;;;;;;19.86;33.64;98537.38;4917200;29;20219;-90
2022/12/19 09:42:23;;;;;;;15.87;12.90;;;;;;;19.49;33.72;98470.84;5069431;23;20371;-86
2022/12/19 09:45:07;;;;;;;15.50;13.10;;;;;;;19.88;33.76;98530.69;4906720;29;20231;-86
2022/12/19 09:47:37;;;;;;;14.90;12.93;;;;;;;19.26;33.65;98424.53;4937335;29;20213;-88
2022/12/19 09:50:04;;;;;;;14.23;12.40;;;;;;;19.26;33.86;98421.97;4921904;29;20719;-86
2022/12/19 09:52:34;;;;;;;14.70;12.53;;;;;;;19.90;33.56;98529.09;4921802;29;20227;-86
2022/12/19 09:55:23;;;;;;;18.70;15.43;;;;;;;19.89;33.03;98566.47;4939565;29;20213;-86
2022/12/19 09:58:05;;;;;;;15.73;13.70;;;;;;;19.91;33.34;98520.63;4932111;29;20212;-87
2022/12/19 10:00:33;;;;;;;16.73;13.50;;;;;;;19.90;33.57;98524.00;4938252;29;20207;-86
2022/12/19 10:03:12;;;;;;;17.87;14.40;;;;;;;19.56;33.65;98488.22;4906803;29;20229;-86
2022/12/19 10:05:40;;;;;;;15.07;12.70;;;;;;;18.89;33.73;98396.22;4922932;29;20220;-88
2022/12/19 10:08:32;;;;;;;15.67;13.07;;;;;;;17.57;33.75;98115.09;4937595;29;20268;-86
2022/12/19 10:11:41;;;;;;;15.73;12.33;;;;;;;18.78;33.79;98315.84;4924988;29;20216;-86
2022/12/19 10:14:35;;;;;;;17.53;12.83;;;;;;;18.47;33.92;98276.81;4920478;29;20204;-86
2022/12/19 10:17:14;;;;;;;15.13;12.73;;;;;;;19.88;33.85;98543.44;4922442;29;20240;-87
2022/12/19 10:20:09;;;;;;;14.27;12.07;;;;;;;19.88;33.81;98517.94;4929201;29;20205;-87
2022/12/19 10:22:54;;;;;;;14.87;12.20;;;;;;;19.88;34.06;98525.59;4937099;29;20594;-87
2022/12/19 10:25:33;;;;;;;14.50;12.30;;;;;;;19.88;34.06;98530.69;4953166;29;20716;-86
2022/12/19 10:28:18;;;;;;;13.50;11.43;;;;;;;19.87;34.03;98524.69;4949521;29;20720;-86
2022/12/19 10:31:26;;;;;;;13.00;10.87;;;;;;;19.89;33.95;98528.22;4938020;29;20248;-86
2022/12/19 10:34:03;;;;;;;12.23;10.80;;;;;;;18.72;34.19;98350.28;4936805;29;20217;-87
2022/12/19 10:36:30;;;;;;;12.33;10.60;;;;;;;15.60;34.10;97756.38;4920250;29;20205;-86
2022/12/19 10:39:32;;;;;;;12.67;11.30;;;;;;;19.91;34.51;98503.66;4923072;29;20211;-87
2022/12/19 10:42:06;;;;;;;12.30;11.00;;;;;;;19.90;34.25;98518.91;4931786;29;20319;-87
2022/12/19 10:44:33;;;;;;;12.67;11.10;;;;;;;19.58;34.08;98452.59;4929094;29;20208;-86
2022/12/19 10:47:00;;;;;;;12.83;10.77;;;;;;;19.90;34.09;98490.84;4936457;29;20209;-85
2022/12/19 10:49:30;;;;;;;12.53;10.80;;;;;;;17.25;34.25;98015.88;4922615;29;20275;-87
2022/12/19 10:52:04;;;;;;;13.73;10.97;;;;;;;18.50;34.34;98223.53;4936506;29;20667;-87
2022/12/19 10:54:37;;;;;;;12.57;10.87;;;;;;;19.91;34.34;98475.59;4935870;29;20563;-86
2022/12/19 10:57:24;;;;;;;11.20;10.00;;;;;;;19.91;34.33;98475.59;4937609;29;20592;-87
2022/12/19 11:00:00;;;;;;;12.60;10.40;;;;;;;18.42;34.33;98213.75;4930643;29;20687;-87
2022/12/19 11:02:43;;;;;;;11.83;9.60;;;;;;;19.91;34.54;98470.50;4950560;28;20232;-86
2022/12/19 11:05:45;;;;;;;11.43;10.10;;;;;;;17.03;34.43;97964.75;4936125;29;20213;-86
2022/12/19 11:08:27;;;;;;;12.03;9.80;;;;;;;18.60;34.48;98235.06;4935429;29;20208;-87
2022/12/19 11:11:14;;;;;;;11.67;10.00;;;;;;;19.91;34.45;98447.53;4915500;29;20212;-86
2022/12/19 11:14:01;;;;;;;11.10;9.90;;;;;;;19.92;34.43;98453.50;4937998;29;20215;-87
2022/12/19 11:16:48;;;;;;;13.10;9.93;;;;;;;19.91;34.09;98452.66;4910465;29;20215;-86
2022/12/19 11:19:36;;;;;;;11.97;8.97;;;;;;;18.03;34.53;98128.56;4935893;29;20209;-86
2022/12/19 11:22:29;;;;;;;11.03;9.50;;;;;;;19.92;34.61;98466.25;4920161;29;20232;-85
2022/12/19 11:25:17;;;;;;;11.43;9.80;;;;;;;17.36;34.52;97989.41;4920451;29;20613;-86
2022/12/19 11:28:11;;;;;;;12.10;9.90;;;;;;;19.20;34.47;98291.69;4919541;29;20217;-87
2022/12/19 11:31:18;;;;;;;12.03;10.23;;;;;;;19.93;34.41;98429.75;4921870;29;20209;-86
2022/12/19 11:34:05;;;;;;;10.60;9.43;;;;;;;16.52;34.45;97855.34;4933170;29;20244;-85
2022/12/19 11:36:42;;;;;;;12.40;9.47;;;;;;;17.82;34.45;98043.50;4919920;29;20209;-87
2022/12/19 11:39:17;;;;;;;11.77;9.73;;;;;;;18.67;34.44;98188.75;4936063;29;20244;-86
2022/12/19 11:41:48;;;;;;;10.80;9.67;;;;;;;18.65;34.59;98188.69;4921519;29;20646;-87
2022/12/19 11:44:45;;;;;;;10.47;9.37;;;;;;;19.22;34.58;98297.75;4936292;29;20272;-86
2022/12/19 11:47:31;;;;;;;10.30;9.20;;;;;;;19.57;34.22;98344.63;4919428;29;20209;-87
2022/12/19 11:50:12;;;;;;;10.83;9.10;;;;;;;19.62;34.49;98337.19;4941143;29;20225;-87
2022/12/19 11:52:57;;;;;;;10.20;9.10;;;;;;;17.80;34.87;98033.28;4925458;29;20259;-86